sensor_id;sensor_type;location;lat;lon;timestamp;P1;durP1;ratioP1;P2;durP2;ratioP2
14348;SDS011;7258;50.376;8.742;2022-07-31T00:00:31;3.22;;;2.70;;
14348;SDS011;7258;50.376;8.742;2022-07-31T00:02:34;5.63;;;2.85;;
14348;SDS011;7258;50.376;8.742;2022-07-31T00:04:37;3.38;;;2.90;;
14348;SDS011;7258;50.376;8.742;2022-07-31T00:06:40;3.75;;;2.67;;
14348;SDS011;7258;50.376;8.742;2022-07-31T00:08:44;5.82;;;2.63;;
14348;SDS011;7258;50.376;8.742;2022-07-31T00:10:48;5.72;;;3.03;;
14348;SDS011;7258;50.376;8.742;2022-07-31T00:12:51;5.10;;;2.65;;
14348;SDS011;7258;50.376;8.742;2022-07-31T00:14:54;5.75;;;2.58;;
14348;SDS011;7258;50.376;8.742;2022-07-31T00:16:57;3.63;;;2.60;;
14348;SDS011;7258;50.376;8.742;2022-07-31T00:19:00;3.42;;;2.60;;
14348;SDS011;7258;50.376;8.742;2022-07-31T00:21:03;3.17;;;2.67;;
14348;SDS011;7258;50.376;8.742;2022-07-31T00:23:06;3.75;;;2.63;;
14348;SDS011;7258;50.376;8.742;2022-07-31T00:25:11;2.70;;;2.47;;
14348;SDS011;7258;50.376;8.742;2022-07-31T00:27:16;2.90;;;2.50;;
14348;SDS011;7258;50.376;8.742;2022-07-31T00:29:19;3.08;;;2.50;;
14348;SDS011;7258;50.376;8.742;2022-07-31T00:31:22;2.80;;;2.47;;
14348;SDS011;7258;50.376;8.742;2022-07-31T00:33:25;2.92;;;2.20;;
14348;SDS011;7258;50.376;8.742;2022-07-31T00:35:28;2.40;;;2.20;;
14348;SDS011;7258;50.376;8.742;2022-07-31T00:37:31;2.85;;;2.58;;
14348;SDS011;7258;50.376;8.742;2022-07-31T00:39:36;3.05;;;2.78;;
14348;SDS011;7258;50.376;8.742;2022-07-31T00:41:40;6.30;;;3.00;;
14348;SDS011;7258;50.376;8.742;2022-07-31T00:43:45;4.22;;;2.70;;
14348;SDS011;7258;50.376;8.742;2022-07-31T00:45:48;3.78;;;2.85;;
14348;SDS011;7258;50.376;8.742;2022-07-31T00:47:59;3.00;;;2.67;;
14348;SDS011;7258;50.376;8.742;2022-07-31T00:50:05;4.18;;;2.88;;
14348;SDS011;7258;50.376;8.742;2022-07-31T00:52:08;5.55;;;2.50;;
14348;SDS011;7258;50.376;8.742;2022-07-31T00:54:12;3.00;;;2.80;;
14348;SDS011;7258;50.376;8.742;2022-07-31T00:56:23;5.18;;;2.58;;
14348;SDS011;7258;50.376;8.742;2022-07-31T00:58:26;4.32;;;2.95;;
14348;SDS011;7258;50.376;8.742;2022-07-31T01:00:30;4.53;;;2.95;;
14348;SDS011;7258;50.376;8.742;2022-07-31T01:02:33;3.92;;;2.67;;
14348;SDS011;7258;50.376;8.742;2022-07-31T01:04:46;3.08;;;2.78;;
14348;SDS011;7258;50.376;8.742;2022-07-31T01:06:49;2.78;;;2.58;;
14348;SDS011;7258;50.376;8.742;2022-07-31T01:08:52;4.93;;;3.10;;
14348;SDS011;7258;50.376;8.742;2022-07-31T01:10:56;2.88;;;2.60;;
14348;SDS011;7258;50.376;8.742;2022-07-31T01:13:03;3.45;;;2.83;;
14348;SDS011;7258;50.376;8.742;2022-07-31T01:15:11;2.80;;;2.50;;
14348;SDS011;7258;50.376;8.742;2022-07-31T01:17:17;5.32;;;3.03;;
14348;SDS011;7258;50.376;8.742;2022-07-31T01:19:26;2.78;;;2.50;;
14348;SDS011;7258;50.376;8.742;2022-07-31T01:21:47;4.35;;;2.78;;
14348;SDS011;7258;50.376;8.742;2022-07-31T01:24:02;3.08;;;2.80;;
14348;SDS011;7258;50.376;8.742;2022-07-31T01:26:28;3.40;;;2.67;;
14348;SDS011;7258;50.376;8.742;2022-07-31T01:28:47;4.35;;;2.97;;
14348;SDS011;7258;50.376;8.742;2022-07-31T01:31:03;5.45;;;2.80;;
14348;SDS011;7258;50.376;8.742;2022-07-31T01:33:26;5.47;;;2.90;;
14348;SDS011;7258;50.376;8.742;2022-07-31T01:35:34;3.88;;;3.58;;
14348;SDS011;7258;50.376;8.742;2022-07-31T01:37:44;3.67;;;3.20;;
14348;SDS011;7258;50.376;8.742;2022-07-31T01:39:53;3.10;;;2.90;;
14348;SDS011;7258;50.376;8.742;2022-07-31T01:42:03;4.00;;;3.03;;
14348;SDS011;7258;50.376;8.742;2022-07-31T01:44:09;6.40;;;3.00;;
14348;SDS011;7258;50.376;8.742;2022-07-31T01:46:15;4.53;;;2.90;;
14348;SDS011;7258;50.376;8.742;2022-07-31T01:48:21;3.63;;;3.08;;
14348;SDS011;7258;50.376;8.742;2022-07-31T01:50:25;3.55;;;2.70;;
14348;SDS011;7258;50.376;8.742;2022-07-31T01:52:44;4.25;;;3.05;;
14348;SDS011;7258;50.376;8.742;2022-07-31T01:54:47;4.57;;;2.80;;
14348;SDS011;7258;50.376;8.742;2022-07-31T01:56:51;4.88;;;2.88;;
14348;SDS011;7258;50.376;8.742;2022-07-31T01:58:55;4.47;;;2.88;;
14348;SDS011;7258;50.376;8.742;2022-07-31T02:01:03;3.42;;;2.70;;
14348;SDS011;7258;50.376;8.742;2022-07-31T02:03:09;3.85;;;2.80;;
14348;SDS011;7258;50.376;8.742;2022-07-31T02:05:14;3.00;;;2.78;;
14348;SDS011;7258;50.376;8.742;2022-07-31T02:07:18;3.17;;;2.60;;
14348;SDS011;7258;50.376;8.742;2022-07-31T02:09:22;4.30;;;3.13;;
14348;SDS011;7258;50.376;8.742;2022-07-31T02:11:26;4.05;;;2.72;;
14348;SDS011;7258;50.376;8.742;2022-07-31T02:13:30;3.20;;;2.70;;
14348;SDS011;7258;50.376;8.742;2022-07-31T02:15:33;3.22;;;2.92;;
14348;SDS011;7258;50.376;8.742;2022-07-31T02:17:38;5.15;;;3.33;;
14348;SDS011;7258;50.376;8.742;2022-07-31T02:19:44;2.90;;;2.60;;
14348;SDS011;7258;50.376;8.742;2022-07-31T02:22:00;4.55;;;2.78;;
14348;SDS011;7258;50.376;8.742;2022-07-31T02:24:03;6.03;;;2.47;;
14348;SDS011;7258;50.376;8.742;2022-07-31T02:26:07;3.80;;;2.65;;
14348;SDS011;7258;50.376;8.742;2022-07-31T02:28:11;4.38;;;2.70;;
14348;SDS011;7258;50.376;8.742;2022-07-31T02:30:16;3.75;;;2.90;;
14348;SDS011;7258;50.376;8.742;2022-07-31T02:32:20;4.97;;;2.80;;
14348;SDS011;7258;50.376;8.742;2022-07-31T02:34:25;4.03;;;3.15;;
14348;SDS011;7258;50.376;8.742;2022-07-31T02:36:30;4.00;;;3.20;;
14348;SDS011;7258;50.376;8.742;2022-07-31T02:38:35;3.33;;;2.88;;
14348;SDS011;7258;50.376;8.742;2022-07-31T02:40:38;3.30;;;3.00;;
14348;SDS011;7258;50.376;8.742;2022-07-31T02:42:43;3.53;;;2.90;;
14348;SDS011;7258;50.376;8.742;2022-07-31T02:44:48;5.32;;;2.90;;
14348;SDS011;7258;50.376;8.742;2022-07-31T02:46:52;3.22;;;2.92;;
14348;SDS011;7258;50.376;8.742;2022-07-31T02:48:56;3.13;;;2.50;;
14348;SDS011;7258;50.376;8.742;2022-07-31T02:51:01;3.65;;;3.13;;
14348;SDS011;7258;50.376;8.742;2022-07-31T02:53:04;3.83;;;3.10;;
14348;SDS011;7258;50.376;8.742;2022-07-31T02:55:08;3.30;;;2.60;;
14348;SDS011;7258;50.376;8.742;2022-07-31T02:57:13;4.55;;;2.63;;
14348;SDS011;7258;50.376;8.742;2022-07-31T02:59:17;3.72;;;3.00;;
14348;SDS011;7258;50.376;8.742;2022-07-31T03:01:22;2.78;;;2.58;;
14348;SDS011;7258;50.376;8.742;2022-07-31T03:03:25;2.90;;;2.70;;
14348;SDS011;7258;50.376;8.742;2022-07-31T03:05:28;4.22;;;3.10;;
14348;SDS011;7258;50.376;8.742;2022-07-31T03:07:33;3.15;;;2.85;;
14348;SDS011;7258;50.376;8.742;2022-07-31T03:09:35;2.97;;;2.75;;
14348;SDS011;7258;50.376;8.742;2022-07-31T03:11:38;3.00;;;2.80;;
14348;SDS011;7258;50.376;8.742;2022-07-31T03:13:42;4.68;;;2.90;;
14348;SDS011;7258;50.376;8.742;2022-07-31T03:15:45;4.82;;;2.80;;
14348;SDS011;7258;50.376;8.742;2022-07-31T03:17:51;3.35;;;3.05;;
14348;SDS011;7258;50.376;8.742;2022-07-31T03:19:56;3.28;;;2.97;;
14348;SDS011;7258;50.376;8.742;2022-07-31T03:21:58;3.30;;;3.10;;
14348;SDS011;7258;50.376;8.742;2022-07-31T03:24:04;3.60;;;3.17;;
14348;SDS011;7258;50.376;8.742;2022-07-31T03:26:07;3.47;;;3.17;;
14348;SDS011;7258;50.376;8.742;2022-07-31T03:28:12;2.83;;;2.63;;
14348;SDS011;7258;50.376;8.742;2022-07-31T03:30:15;3.40;;;3.10;;
14348;SDS011;7258;50.376;8.742;2022-07-31T03:32:25;4.50;;;3.05;;
14348;SDS011;7258;50.376;8.742;2022-07-31T03:34:27;4.32;;;3.15;;
14348;SDS011;7258;50.376;8.742;2022-07-31T03:36:30;3.95;;;3.22;;
14348;SDS011;7258;50.376;8.742;2022-07-31T03:38:33;3.58;;;3.22;;
14348;SDS011;7258;50.376;8.742;2022-07-31T03:40:44;3.95;;;3.15;;
14348;SDS011;7258;50.376;8.742;2022-07-31T03:42:47;3.33;;;3.08;;
14348;SDS011;7258;50.376;8.742;2022-07-31T03:44:51;4.00;;;3.60;;
14348;SDS011;7258;50.376;8.742;2022-07-31T03:46:54;3.30;;;3.00;;
14348;SDS011;7258;50.376;8.742;2022-07-31T03:48:58;3.40;;;3.10;;
14348;SDS011;7258;50.376;8.742;2022-07-31T03:51:02;2.90;;;2.70;;
14348;SDS011;7258;50.376;8.742;2022-07-31T03:53:05;3.95;;;3.50;;
14348;SDS011;7258;50.376;8.742;2022-07-31T03:55:12;4.35;;;3.22;;
14348;SDS011;7258;50.376;8.742;2022-07-31T03:57:17;5.22;;;3.28;;
14348;SDS011;7258;50.376;8.742;2022-07-31T03:59:26;5.10;;;3.03;;
14348;SDS011;7258;50.376;8.742;2022-07-31T04:01:40;3.53;;;3.15;;
14348;SDS011;7258;50.376;8.742;2022-07-31T04:04:03;5.88;;;3.15;;
14348;SDS011;7258;50.376;8.742;2022-07-31T04:06:06;4.25;;;3.00;;
14348;SDS011;7258;50.376;8.742;2022-07-31T04:08:09;3.33;;;3.03;;
14348;SDS011;7258;50.376;8.742;2022-07-31T04:10:12;3.65;;;3.35;;
14348;SDS011;7258;50.376;8.742;2022-07-31T04:12:17;3.60;;;3.30;;
14348;SDS011;7258;50.376;8.742;2022-07-31T04:14:19;4.68;;;3.40;;
14348;SDS011;7258;50.376;8.742;2022-07-31T04:16:23;3.58;;;3.17;;
14348;SDS011;7258;50.376;8.742;2022-07-31T04:18:26;4.47;;;3.50;;
14348;SDS011;7258;50.376;8.742;2022-07-31T04:20:29;3.90;;;3.53;;
14348;SDS011;7258;50.376;8.742;2022-07-31T04:22:32;3.55;;;3.10;;
14348;SDS011;7258;50.376;8.742;2022-07-31T04:24:35;3.78;;;3.40;;
14348;SDS011;7258;50.376;8.742;2022-07-31T04:26:38;7.25;;;3.50;;
14348;SDS011;7258;50.376;8.742;2022-07-31T04:28:43;3.85;;;3.10;;
14348;SDS011;7258;50.376;8.742;2022-07-31T04:30:45;5.07;;;3.58;;
14348;SDS011;7258;50.376;8.742;2022-07-31T04:32:48;4.35;;;3.30;;
14348;SDS011;7258;50.376;8.742;2022-07-31T04:34:51;3.83;;;3.38;;
14348;SDS011;7258;50.376;8.742;2022-07-31T04:36:54;4.22;;;3.22;;
14348;SDS011;7258;50.376;8.742;2022-07-31T04:38:57;4.50;;;3.40;;
14348;SDS011;7258;50.376;8.742;2022-07-31T04:41:00;3.95;;;3.30;;
14348;SDS011;7258;50.376;8.742;2022-07-31T04:43:03;3.75;;;3.38;;
14348;SDS011;7258;50.376;8.742;2022-07-31T04:45:08;5.30;;;3.53;;
14348;SDS011;7258;50.376;8.742;2022-07-31T04:47:11;3.88;;;3.25;;
14348;SDS011;7258;50.376;8.742;2022-07-31T04:49:14;5.53;;;3.30;;
14348;SDS011;7258;50.376;8.742;2022-07-31T04:51:17;4.68;;;3.10;;
14348;SDS011;7258;50.376;8.742;2022-07-31T04:53:22;4.32;;;3.33;;
14348;SDS011;7258;50.376;8.742;2022-07-31T04:55:25;4.93;;;3.38;;
14348;SDS011;7258;50.376;8.742;2022-07-31T04:57:28;3.70;;;3.40;;
14348;SDS011;7258;50.376;8.742;2022-07-31T04:59:31;5.20;;;3.45;;
14348;SDS011;7258;50.376;8.742;2022-07-31T05:01:55;3.67;;;3.33;;
14348;SDS011;7258;50.376;8.742;2022-07-31T05:03:58;5.72;;;3.00;;
14348;SDS011;7258;50.376;8.742;2022-07-31T05:06:07;3.40;;;3.10;;
14348;SDS011;7258;50.376;8.742;2022-07-31T05:08:12;3.70;;;2.83;;
14348;SDS011;7258;50.376;8.742;2022-07-31T05:10:15;3.63;;;3.28;;
14348;SDS011;7258;50.376;8.742;2022-07-31T05:12:31;3.35;;;2.85;;
14348;SDS011;7258;50.376;8.742;2022-07-31T05:14:34;4.38;;;2.78;;
14348;SDS011;7258;50.376;8.742;2022-07-31T05:16:37;3.35;;;2.90;;
14348;SDS011;7258;50.376;8.742;2022-07-31T05:18:41;4.22;;;2.75;;
14348;SDS011;7258;50.376;8.742;2022-07-31T05:20:45;3.25;;;2.95;;
14348;SDS011;7258;50.376;8.742;2022-07-31T05:22:48;2.92;;;2.63;;
14348;SDS011;7258;50.376;8.742;2022-07-31T05:24:51;2.72;;;2.50;;
14348;SDS011;7258;50.376;8.742;2022-07-31T05:26:54;5.28;;;2.75;;
14348;SDS011;7258;50.376;8.742;2022-07-31T05:28:57;5.32;;;2.70;;
14348;SDS011;7258;50.376;8.742;2022-07-31T05:31:03;2.83;;;2.63;;
14348;SDS011;7258;50.376;8.742;2022-07-31T05:33:06;2.85;;;2.60;;
14348;SDS011;7258;50.376;8.742;2022-07-31T05:35:12;3.53;;;2.92;;
14348;SDS011;7258;50.376;8.742;2022-07-31T05:37:15;3.58;;;3.20;;
14348;SDS011;7258;50.376;8.742;2022-07-31T05:39:18;4.32;;;2.90;;
14348;SDS011;7258;50.376;8.742;2022-07-31T05:41:21;2.72;;;2.50;;
14348;SDS011;7258;50.376;8.742;2022-07-31T05:43:24;3.97;;;2.35;;
14348;SDS011;7258;50.376;8.742;2022-07-31T05:45:27;4.18;;;2.40;;
14348;SDS011;7258;50.376;8.742;2022-07-31T05:47:30;2.88;;;2.67;;
14348;SDS011;7258;50.376;8.742;2022-07-31T05:49:41;4.80;;;2.50;;
14348;SDS011;7258;50.376;8.742;2022-07-31T05:51:45;3.60;;;2.65;;
14348;SDS011;7258;50.376;8.742;2022-07-31T05:53:54;2.80;;;2.60;;
14348;SDS011;7258;50.376;8.742;2022-07-31T05:55:56;3.42;;;2.53;;
14348;SDS011;7258;50.376;8.742;2022-07-31T05:57:59;3.83;;;2.65;;
14348;SDS011;7258;50.376;8.742;2022-07-31T06:00:03;4.07;;;2.72;;
14348;SDS011;7258;50.376;8.742;2022-07-31T06:02:06;3.90;;;2.72;;
14348;SDS011;7258;50.376;8.742;2022-07-31T06:04:09;2.60;;;2.40;;
14348;SDS011;7258;50.376;8.742;2022-07-31T06:06:12;2.60;;;2.40;;
14348;SDS011;7258;50.376;8.742;2022-07-31T06:08:18;3.08;;;2.53;;
14348;SDS011;7258;50.376;8.742;2022-07-31T06:10:21;3.33;;;2.63;;
14348;SDS011;7258;50.376;8.742;2022-07-31T06:12:24;3.78;;;2.60;;
14348;SDS011;7258;50.376;8.742;2022-07-31T06:14:27;3.05;;;2.80;;
14348;SDS011;7258;50.376;8.742;2022-07-31T06:16:30;2.70;;;2.50;;
14348;SDS011;7258;50.376;8.742;2022-07-31T06:18:33;3.00;;;2.70;;
14348;SDS011;7258;50.376;8.742;2022-07-31T06:20:36;3.78;;;2.72;;
14348;SDS011;7258;50.376;8.742;2022-07-31T06:22:39;2.60;;;2.40;;
14348;SDS011;7258;50.376;8.742;2022-07-31T06:24:45;2.90;;;2.70;;
14348;SDS011;7258;50.376;8.742;2022-07-31T06:26:48;4.30;;;2.78;;
14348;SDS011;7258;50.376;8.742;2022-07-31T06:28:50;3.08;;;2.72;;
14348;SDS011;7258;50.376;8.742;2022-07-31T06:30:53;5.18;;;2.80;;
14348;SDS011;7258;50.376;8.742;2022-07-31T06:32:56;4.80;;;2.90;;
14348;SDS011;7258;50.376;8.742;2022-07-31T06:34:59;3.13;;;2.55;;
14348;SDS011;7258;50.376;8.742;2022-07-31T06:37:03;3.72;;;2.88;;
14348;SDS011;7258;50.376;8.742;2022-07-31T06:39:05;4.03;;;2.90;;
14348;SDS011;7258;50.376;8.742;2022-07-31T06:41:10;3.80;;;2.70;;
14348;SDS011;7258;50.376;8.742;2022-07-31T06:43:33;3.28;;;2.75;;
14348;SDS011;7258;50.376;8.742;2022-07-31T06:45:36;3.00;;;2.78;;
14348;SDS011;7258;50.376;8.742;2022-07-31T06:47:52;4.03;;;3.22;;
14348;SDS011;7258;50.376;8.742;2022-07-31T06:49:55;3.25;;;3.03;;
14348;SDS011;7258;50.376;8.742;2022-07-31T06:51:58;3.75;;;3.15;;
14348;SDS011;7258;50.376;8.742;2022-07-31T06:54:06;3.33;;;3.00;;
14348;SDS011;7258;50.376;8.742;2022-07-31T06:56:11;3.40;;;2.90;;
14348;SDS011;7258;50.376;8.742;2022-07-31T06:58:14;3.35;;;3.08;;
14348;SDS011;7258;50.376;8.742;2022-07-31T07:00:17;4.25;;;3.22;;
14348;SDS011;7258;50.376;8.742;2022-07-31T07:02:21;4.65;;;3.58;;
14348;SDS011;7258;50.376;8.742;2022-07-31T07:04:24;4.28;;;3.47;;
14348;SDS011;7258;50.376;8.742;2022-07-31T07:06:47;3.85;;;3.42;;
14348;SDS011;7258;50.376;8.742;2022-07-31T07:08:50;4.38;;;3.08;;
14348;SDS011;7258;50.376;8.742;2022-07-31T07:10:53;3.42;;;2.88;;
14348;SDS011;7258;50.376;8.742;2022-07-31T07:12:57;3.33;;;3.03;;
14348;SDS011;7258;50.376;8.742;2022-07-31T07:15:00;3.78;;;3.35;;
14348;SDS011;7258;50.376;8.742;2022-07-31T07:17:03;4.95;;;3.47;;
14348;SDS011;7258;50.376;8.742;2022-07-31T07:19:06;3.80;;;3.38;;
14348;SDS011;7258;50.376;8.742;2022-07-31T07:21:09;5.45;;;3.58;;
14348;SDS011;7258;50.376;8.742;2022-07-31T07:23:12;3.88;;;3.35;;
14348;SDS011;7258;50.376;8.742;2022-07-31T07:25:15;5.47;;;3.38;;
14348;SDS011;7258;50.376;8.742;2022-07-31T07:27:20;4.07;;;3.78;;
14348;SDS011;7258;50.376;8.742;2022-07-31T07:29:25;4.32;;;3.45;;
14348;SDS011;7258;50.376;8.742;2022-07-31T07:31:28;3.70;;;3.35;;
14348;SDS011;7258;50.376;8.742;2022-07-31T07:33:31;4.88;;;2.97;;
14348;SDS011;7258;50.376;8.742;2022-07-31T07:35:42;3.60;;;3.30;;
14348;SDS011;7258;50.376;8.742;2022-07-31T07:37:45;3.08;;;2.75;;
14348;SDS011;7258;50.376;8.742;2022-07-31T07:39:48;5.90;;;3.53;;
14348;SDS011;7258;50.376;8.742;2022-07-31T07:41:51;3.45;;;3.15;;
14348;SDS011;7258;50.376;8.742;2022-07-31T07:43:54;5.80;;;3.33;;
14348;SDS011;7258;50.376;8.742;2022-07-31T07:45:58;3.55;;;3.20;;
14348;SDS011;7258;50.376;8.742;2022-07-31T07:48:02;4.28;;;3.60;;
14348;SDS011;7258;50.376;8.742;2022-07-31T07:50:08;5.18;;;3.50;;
14348;SDS011;7258;50.376;8.742;2022-07-31T07:52:11;3.67;;;3.35;;
14348;SDS011;7258;50.376;8.742;2022-07-31T07:54:14;4.28;;;3.53;;
14348;SDS011;7258;50.376;8.742;2022-07-31T07:56:17;5.57;;;3.40;;
14348;SDS011;7258;50.376;8.742;2022-07-31T07:58:20;4.70;;;3.70;;
14348;SDS011;7258;50.376;8.742;2022-07-31T08:00:23;5.45;;;3.75;;
14348;SDS011;7258;50.376;8.742;2022-07-31T08:02:27;3.72;;;3.05;;
14348;SDS011;7258;50.376;8.742;2022-07-31T08:04:30;6.22;;;4.03;;
14348;SDS011;7258;50.376;8.742;2022-07-31T08:06:33;4.43;;;3.63;;
14348;SDS011;7258;50.376;8.742;2022-07-31T08:08:36;7.05;;;3.85;;
14348;SDS011;7258;50.376;8.742;2022-07-31T08:10:39;7.45;;;3.85;;
14348;SDS011;7258;50.376;8.742;2022-07-31T08:12:43;4.57;;;3.72;;
14348;SDS011;7258;50.376;8.742;2022-07-31T08:14:46;4.50;;;3.90;;
14348;SDS011;7258;50.376;8.742;2022-07-31T08:16:49;4.55;;;3.50;;
14348;SDS011;7258;50.376;8.742;2022-07-31T08:18:54;5.38;;;4.10;;
14348;SDS011;7258;50.376;8.742;2022-07-31T08:20:57;3.83;;;3.47;;
14348;SDS011;7258;50.376;8.742;2022-07-31T08:23:00;4.70;;;3.67;;
14348;SDS011;7258;50.376;8.742;2022-07-31T08:25:03;3.90;;;3.42;;
14348;SDS011;7258;50.376;8.742;2022-07-31T08:27:11;4.18;;;3.40;;
14348;SDS011;7258;50.376;8.742;2022-07-31T08:29:40;5.70;;;3.13;;
14348;SDS011;7258;50.376;8.742;2022-07-31T08:31:43;3.60;;;3.15;;
14348;SDS011;7258;50.376;8.742;2022-07-31T08:33:49;4.78;;;3.30;;
14348;SDS011;7258;50.376;8.742;2022-07-31T08:35:54;5.60;;;3.40;;
14348;SDS011;7258;50.376;8.742;2022-07-31T08:37:57;4.72;;;3.17;;
14348;SDS011;7258;50.376;8.742;2022-07-31T08:40:04;5.00;;;3.20;;
14348;SDS011;7258;50.376;8.742;2022-07-31T08:42:08;4.43;;;3.40;;
14348;SDS011;7258;50.376;8.742;2022-07-31T08:44:11;3.65;;;3.30;;
14348;SDS011;7258;50.376;8.742;2022-07-31T08:46:14;5.10;;;3.20;;
14348;SDS011;7258;50.376;8.742;2022-07-31T08:48:19;3.85;;;3.30;;
14348;SDS011;7258;50.376;8.742;2022-07-31T08:50:25;3.20;;;2.90;;
14348;SDS011;7258;50.376;8.742;2022-07-31T08:52:30;3.30;;;2.90;;
14348;SDS011;7258;50.376;8.742;2022-07-31T08:54:36;3.58;;;2.95;;
14348;SDS011;7258;50.376;8.742;2022-07-31T08:56:43;4.55;;;3.05;;
14348;SDS011;7258;50.376;8.742;2022-07-31T08:58:47;5.25;;;3.13;;
14348;SDS011;7258;50.376;8.742;2022-07-31T09:00:50;3.47;;;3.00;;
14348;SDS011;7258;50.376;8.742;2022-07-31T09:02:53;9.02;;;3.00;;
14348;SDS011;7258;50.376;8.742;2022-07-31T09:04:56;4.53;;;3.10;;
14348;SDS011;7258;50.376;8.742;2022-07-31T09:06:59;6.28;;;3.17;;
14348;SDS011;7258;50.376;8.742;2022-07-31T09:09:04;4.57;;;2.78;;
14348;SDS011;7258;50.376;8.742;2022-07-31T09:11:07;3.33;;;3.03;;
14348;SDS011;7258;50.376;8.742;2022-07-31T09:13:12;4.50;;;3.00;;
14348;SDS011;7258;50.376;8.742;2022-07-31T09:15:19;4.90;;;2.72;;
14348;SDS011;7258;50.376;8.742;2022-07-31T09:17:30;4.00;;;2.72;;
14348;SDS011;7258;50.376;8.742;2022-07-31T09:19:35;4.95;;;2.75;;
14348;SDS011;7258;50.376;8.742;2022-07-31T09:21:54;2.85;;;2.60;;
14348;SDS011;7258;50.376;8.742;2022-07-31T09:23:57;3.65;;;2.78;;
14348;SDS011;7258;50.376;8.742;2022-07-31T09:26:03;6.43;;;3.10;;
14348;SDS011;7258;50.376;8.742;2022-07-31T09:28:07;5.50;;;3.03;;
14348;SDS011;7258;50.376;8.742;2022-07-31T09:30:10;4.15;;;2.88;;
14348;SDS011;7258;50.376;8.742;2022-07-31T09:32:14;4.55;;;2.85;;
14348;SDS011;7258;50.376;8.742;2022-07-31T09:34:24;5.15;;;2.97;;
14348;SDS011;7258;50.376;8.742;2022-07-31T09:36:31;4.40;;;2.78;;
14348;SDS011;7258;50.376;8.742;2022-07-31T09:38:36;3.90;;;2.70;;
14348;SDS011;7258;50.376;8.742;2022-07-31T09:40:41;2.58;;;2.13;;
14348;SDS011;7258;50.376;8.742;2022-07-31T09:42:58;4.30;;;2.70;;
14348;SDS011;7258;50.376;8.742;2022-07-31T09:45:04;3.20;;;2.65;;
14348;SDS011;7258;50.376;8.742;2022-07-31T09:47:18;3.15;;;2.80;;
14348;SDS011;7258;50.376;8.742;2022-07-31T09:49:28;3.45;;;2.60;;
14348;SDS011;7258;50.376;8.742;2022-07-31T09:51:36;6.25;;;2.70;;
14348;SDS011;7258;50.376;8.742;2022-07-31T09:53:40;4.00;;;2.50;;
14348;SDS011;7258;50.376;8.742;2022-07-31T09:55:47;6.30;;;2.72;;
14348;SDS011;7258;50.376;8.742;2022-07-31T09:57:51;4.90;;;2.90;;
14348;SDS011;7258;50.376;8.742;2022-07-31T09:59:57;3.10;;;2.67;;
14348;SDS011;7258;50.376;8.742;2022-07-31T10:02:00;3.63;;;2.70;;
14348;SDS011;7258;50.376;8.742;2022-07-31T10:04:03;4.32;;;2.67;;
14348;SDS011;7258;50.376;8.742;2022-07-31T10:06:08;4.07;;;2.72;;
14348;SDS011;7258;50.376;8.742;2022-07-31T10:08:16;5.13;;;3.10;;
14348;SDS011;7258;50.376;8.742;2022-07-31T10:10:21;2.75;;;2.40;;
14348;SDS011;7258;50.376;8.742;2022-07-31T10:12:26;3.13;;;2.67;;
14348;SDS011;7258;50.376;8.742;2022-07-31T10:14:34;3.63;;;3.08;;
14348;SDS011;7258;50.376;8.742;2022-07-31T10:16:41;4.22;;;2.60;;
14348;SDS011;7258;50.376;8.742;2022-07-31T10:18:46;5.10;;;3.05;;
14348;SDS011;7258;50.376;8.742;2022-07-31T10:20:51;5.40;;;3.05;;
14348;SDS011;7258;50.376;8.742;2022-07-31T10:23:00;5.53;;;2.63;;
14348;SDS011;7258;50.376;8.742;2022-07-31T10:25:07;6.53;;;3.28;;
14348;SDS011;7258;50.376;8.742;2022-07-31T10:27:13;4.88;;;3.10;;
14348;SDS011;7258;50.376;8.742;2022-07-31T10:29:19;4.47;;;2.90;;
14348;SDS011;7258;50.376;8.742;2022-07-31T10:31:22;5.25;;;2.90;;
14348;SDS011;7258;50.376;8.742;2022-07-31T10:33:26;3.78;;;3.05;;
14348;SDS011;7258;50.376;8.742;2022-07-31T10:35:45;3.97;;;3.17;;
14348;SDS011;7258;50.376;8.742;2022-07-31T10:37:57;3.30;;;2.85;;
14348;SDS011;7258;50.376;8.742;2022-07-31T10:40:08;3.40;;;3.08;;
14348;SDS011;7258;50.376;8.742;2022-07-31T10:42:21;7.13;;;3.20;;
14348;SDS011;7258;50.376;8.742;2022-07-31T10:44:33;3.95;;;3.10;;
14348;SDS011;7258;50.376;8.742;2022-07-31T10:46:39;3.28;;;2.60;;
14348;SDS011;7258;50.376;8.742;2022-07-31T10:48:52;3.72;;;2.63;;
14348;SDS011;7258;50.376;8.742;2022-07-31T10:51:02;3.05;;;2.78;;
14348;SDS011;7258;50.376;8.742;2022-07-31T10:53:06;3.45;;;2.80;;
14348;SDS011;7258;50.376;8.742;2022-07-31T10:55:14;3.90;;;2.88;;
14348;SDS011;7258;50.376;8.742;2022-07-31T10:57:20;5.47;;;3.00;;
14348;SDS011;7258;50.376;8.742;2022-07-31T10:59:26;2.75;;;2.33;;
14348;SDS011;7258;50.376;8.742;2022-07-31T11:01:30;3.38;;;2.67;;
14348;SDS011;7258;50.376;8.742;2022-07-31T11:03:36;5.20;;;2.50;;
14348;SDS011;7258;50.376;8.742;2022-07-31T11:05:52;3.45;;;2.40;;
14348;SDS011;7258;50.376;8.742;2022-07-31T11:08:04;4.70;;;2.50;;
14348;SDS011;7258;50.376;8.742;2022-07-31T11:10:09;2.78;;;2.30;;
14348;SDS011;7258;50.376;8.742;2022-07-31T11:12:17;2.88;;;2.33;;
14348;SDS011;7258;50.376;8.742;2022-07-31T11:14:30;3.70;;;2.50;;
14348;SDS011;7258;50.376;8.742;2022-07-31T11:16:34;3.92;;;2.40;;
14348;SDS011;7258;50.376;8.742;2022-07-31T11:18:37;3.33;;;2.40;;
14348;SDS011;7258;50.376;8.742;2022-07-31T11:20:40;4.32;;;2.10;;
14348;SDS011;7258;50.376;8.742;2022-07-31T11:22:57;3.45;;;2.15;;
14348;SDS011;7258;50.376;8.742;2022-07-31T11:25:04;3.20;;;2.33;;
14348;SDS011;7258;50.376;8.742;2022-07-31T11:27:07;3.60;;;2.05;;
14348;SDS011;7258;50.376;8.742;2022-07-31T11:29:11;4.03;;;2.10;;
14348;SDS011;7258;50.376;8.742;2022-07-31T11:31:33;2.33;;;1.90;;
14348;SDS011;7258;50.376;8.742;2022-07-31T11:33:38;5.25;;;2.20;;
14348;SDS011;7258;50.376;8.742;2022-07-31T11:35:43;2.67;;;1.90;;
14348;SDS011;7258;50.376;8.742;2022-07-31T11:37:48;3.25;;;1.95;;
14348;SDS011;7258;50.376;8.742;2022-07-31T11:39:59;4.10;;;2.10;;
14348;SDS011;7258;50.376;8.742;2022-07-31T11:42:03;5.72;;;2.22;;
14348;SDS011;7258;50.376;8.742;2022-07-31T11:44:08;5.35;;;2.08;;
14348;SDS011;7258;50.376;8.742;2022-07-31T11:46:12;3.83;;;2.00;;
14348;SDS011;7258;50.376;8.742;2022-07-31T11:48:21;3.25;;;1.90;;
14348;SDS011;7258;50.376;8.742;2022-07-31T11:50:28;2.92;;;1.77;;
14348;SDS011;7258;50.376;8.742;2022-07-31T11:52:32;2.40;;;1.95;;
14348;SDS011;7258;50.376;8.742;2022-07-31T11:54:38;2.90;;;2.10;;
14348;SDS011;7258;50.376;8.742;2022-07-31T11:56:43;3.40;;;2.15;;
14348;SDS011;7258;50.376;8.742;2022-07-31T11:58:46;2.50;;;1.90;;
14348;SDS011;7258;50.376;8.742;2022-07-31T12:00:51;3.50;;;1.92;;
14348;SDS011;7258;50.376;8.742;2022-07-31T12:02:56;3.05;;;2.10;;
14348;SDS011;7258;50.376;8.742;2022-07-31T12:05:00;2.00;;;1.75;;
14348;SDS011;7258;50.376;8.742;2022-07-31T12:07:04;2.10;;;1.67;;
14348;SDS011;7258;50.376;8.742;2022-07-31T12:09:08;5.40;;;1.95;;
14348;SDS011;7258;50.376;8.742;2022-07-31T12:11:31;3.97;;;1.83;;
14348;SDS011;7258;50.376;8.742;2022-07-31T12:13:35;2.53;;;1.90;;
14348;SDS011;7258;50.376;8.742;2022-07-31T12:15:38;2.28;;;1.80;;
14348;SDS011;7258;50.376;8.742;2022-07-31T12:17:42;2.08;;;1.80;;
14348;SDS011;7258;50.376;8.742;2022-07-31T12:19:45;2.95;;;2.00;;
14348;SDS011;7258;50.376;8.742;2022-07-31T12:21:48;3.70;;;2.50;;
14348;SDS011;7258;50.376;8.742;2022-07-31T12:23:51;4.32;;;2.67;;
14348;SDS011;7258;50.376;8.742;2022-07-31T12:25:54;3.08;;;2.05;;
14348;SDS011;7258;50.376;8.742;2022-07-31T12:27:57;3.17;;;2.00;;
14348;SDS011;7258;50.376;8.742;2022-07-31T12:30:12;1.80;;;1.70;;
14348;SDS011;7258;50.376;8.742;2022-07-31T12:32:22;4.68;;;2.28;;
14348;SDS011;7258;50.376;8.742;2022-07-31T12:34:26;2.38;;;1.98;;
14348;SDS011;7258;50.376;8.742;2022-07-31T12:36:30;3.75;;;2.08;;
14348;SDS011;7258;50.376;8.742;2022-07-31T12:38:33;3.50;;;2.20;;
14348;SDS011;7258;50.376;8.742;2022-07-31T12:40:48;4.28;;;2.10;;
14348;SDS011;7258;50.376;8.742;2022-07-31T12:42:51;4.20;;;2.38;;
14348;SDS011;7258;50.376;8.742;2022-07-31T12:44:56;5.88;;;2.25;;
14348;SDS011;7258;50.376;8.742;2022-07-31T12:47:21;4.50;;;1.80;;